createdAt,value
2018-10-17T00:00:39.099Z,100.00
2018-10-17T00:03:07.304Z,100.00
2018-10-17T00:05:35.512Z,100.00
2018-10-17T00:08:03.722Z,100.00
2018-10-17T00:10:31.931Z,100.00
2018-10-17T00:13:00.241Z,100.00
2018-10-17T00:15:28.399Z,100.00
2018-10-17T00:17:57.409Z,100.00
2018-10-17T00:20:25.644Z,100.00
2018-10-17T00:22:53.833Z,100.00
2018-10-17T00:25:22.081Z,100.00
2018-10-17T00:27:50.351Z,100.00
2018-10-17T00:30:18.553Z,100.00
2018-10-17T00:32:46.738Z,100.00
2018-10-17T00:35:15.320Z,100.00
2018-10-17T00:37:43.484Z,100.00
2018-10-17T00:40:18.490Z,100.00
2018-10-17T00:42:46.657Z,100.00
2018-10-17T00:45:14.870Z,100.00
2018-10-17T00:47:43.108Z,100.00
2018-10-17T00:50:11.333Z,100.00
2018-10-17T00:52:39.556Z,100.00
2018-10-17T00:55:07.881Z,100.00
2018-10-17T00:57:36.150Z,100.00
2018-10-17T01:00:04.464Z,100.00
2018-10-17T01:02:32.704Z,100.00
2018-10-17T01:05:01.280Z,100.00
2018-10-17T01:07:29.460Z,100.00
2018-10-17T01:09:57.663Z,100.00
2018-10-17T01:12:25.848Z,100.00
2018-10-17T01:14:54.051Z,100.00
2018-10-17T01:17:22.268Z,100.00
2018-10-17T01:19:50.603Z,100.00
2018-10-17T01:22:18.814Z,100.00
2018-10-17T01:24:47.062Z,100.00
2018-10-17T01:27:15.327Z,100.00
2018-10-17T01:29:43.612Z,100.00
2018-10-17T01:32:11.903Z,100.00
2018-10-17T01:34:40.099Z,100.00
2018-10-17T01:37:08.379Z,100.00
2018-10-17T01:39:36.616Z,100.00
2018-10-17T01:42:05.665Z,100.00
2018-10-17T01:44:33.815Z,100.00
2018-10-17T01:47:02.080Z,100.00
2018-10-17T01:49:30.257Z,100.00
2018-10-17T01:51:58.440Z,100.00
2018-10-17T01:54:26.692Z,100.00
2018-10-17T01:56:54.871Z,100.00
2018-10-17T01:59:23.037Z,100.00
2018-10-17T02:01:51.286Z,100.00
2018-10-17T02:04:19.544Z,100.00
2018-10-17T02:06:47.706Z,100.00
2018-10-17T02:09:15.912Z,100.00
2018-10-17T02:11:44.096Z,100.00
2018-10-17T02:14:12.274Z,100.00
2018-10-17T02:16:41.360Z,100.00
2018-10-17T02:19:09.648Z,100.00
2018-10-17T02:21:37.712Z,100.00
2018-10-17T02:24:06.877Z,100.00
2018-10-17T02:26:35.129Z,100.00
2018-10-17T02:29:03.347Z,100.00
2018-10-17T02:31:31.538Z,100.00
2018-10-17T02:33:59.803Z,100.00
2018-10-17T02:36:28.071Z,100.00
2018-10-17T02:38:56.489Z,100.00
2018-10-17T02:41:24.673Z,100.00
2018-10-17T02:43:52.861Z,100.00
2018-10-17T02:46:21.051Z,100.00
2018-10-17T02:48:49.216Z,100.00
2018-10-17T02:51:17.413Z,100.00
2018-10-17T02:53:45.616Z,100.00
2018-10-17T02:56:13.789Z,100.00
2018-10-17T02:58:42.050Z,100.00
2018-10-17T03:01:10.279Z,100.00
2018-10-17T03:03:38.417Z,100.00
2018-10-17T03:06:06.585Z,100.00
2018-10-17T03:08:34.869Z,100.00
2018-10-17T03:11:03.085Z,100.00
2018-10-17T03:13:31.297Z,100.00
2018-10-17T03:15:59.580Z,100.00
2018-10-17T03:18:27.752Z,100.00
2018-10-17T03:20:55.928Z,100.00
2018-10-17T03:23:24.115Z,100.00
2018-10-17T03:25:52.372Z,100.00
2018-10-17T03:28:20.554Z,100.00
2018-10-17T03:30:49.100Z,100.00
2018-10-17T03:33:17.357Z,100.00
2018-10-17T03:35:45.572Z,100.00
2018-10-17T03:38:13.701Z,100.00
2018-10-17T03:40:41.874Z,100.00
2018-10-17T03:43:10.141Z,100.00
2018-10-17T03:45:38.278Z,100.00
2018-10-17T03:48:06.758Z,100.00
2018-10-17T03:50:34.974Z,100.00
2018-10-17T03:53:03.232Z,100.00
2018-10-17T03:55:31.386Z,100.00
2018-10-17T03:57:59.591Z,100.00
2018-10-17T04:00:27.808Z,100.00
2018-10-17T04:02:56.376Z,100.00
2018-10-17T04:05:24.820Z,100.00
2018-10-17T04:07:53.016Z,100.00
2018-10-17T04:10:21.433Z,100.00
2018-10-17T04:12:49.591Z,100.00
2018-10-17T04:15:17.772Z,100.00
2018-10-17T04:17:46.044Z,100.00
2018-10-17T04:20:14.313Z,100.00
2018-10-17T04:22:54.511Z,100.00
2018-10-17T04:25:22.696Z,100.00
2018-10-17T04:27:51.318Z,100.00
2018-10-17T04:30:19.914Z,100.00
2018-10-17T04:32:48.128Z,100.00
2018-10-17T04:35:16.498Z,100.00
2018-10-17T04:37:44.622Z,100.00
2018-10-17T04:40:12.886Z,100.00
2018-10-17T04:42:41.134Z,100.00
2018-10-17T04:45:09.825Z,100.00
2018-10-17T04:47:38.307Z,100.00
2018-10-17T04:50:07.856Z,100.00
2018-10-17T04:52:36.141Z,100.00
2018-10-17T04:55:04.664Z,100.00
2018-10-17T04:57:32.885Z,100.00
2018-10-17T05:00:01.358Z,100.00
2018-10-17T05:02:29.593Z,100.00
2018-10-17T05:04:57.786Z,100.00
2018-10-17T05:07:26.056Z,100.00
2018-10-17T05:09:54.145Z,100.00
2018-10-17T05:12:23.413Z,100.00
2018-10-17T05:14:51.710Z,100.00
2018-10-17T05:17:19.957Z,100.00
2018-10-17T05:19:48.148Z,100.00
2018-10-17T05:22:16.457Z,100.00
2018-10-17T05:24:44.637Z,100.00
2018-10-17T05:27:12.828Z,100.00
2018-10-17T05:29:41.021Z,100.00
2018-10-17T05:32:09.176Z,100.00
2018-10-17T05:34:37.390Z,100.00
2018-10-17T05:37:05.967Z,100.00
2018-10-17T05:39:34.138Z,100.00
2018-10-17T05:42:02.344Z,100.00
2018-10-17T05:44:30.707Z,100.00
2018-10-17T05:46:59.086Z,100.00
2018-10-17T05:49:27.206Z,100.00
2018-10-17T05:51:55.497Z,100.00
2018-10-17T05:54:23.670Z,100.00
2018-10-17T05:56:51.838Z,100.00
2018-10-17T05:59:20.056Z,100.00
2018-10-17T06:01:48.812Z,100.00
2018-10-17T06:04:16.850Z,100.00
2018-10-17T06:06:45.426Z,100.00
2018-10-17T06:09:13.661Z,100.00
2018-10-17T06:11:42.097Z,100.00
2018-10-17T06:14:14.501Z,100.00
2018-10-17T06:16:42.718Z,100.00
2018-10-17T06:19:11.195Z,100.00
2018-10-17T06:21:39.826Z,100.00
2018-10-17T06:24:08.397Z,100.00
2018-10-17T06:26:36.882Z,100.00
2018-10-17T06:29:05.201Z,100.00
2018-10-17T06:31:33.369Z,100.00
2018-10-17T06:34:01.565Z,100.00
2018-10-17T06:36:29.732Z,100.00
2018-10-17T06:38:57.916Z,100.00
2018-10-17T06:41:26.345Z,100.00
2018-10-17T06:43:54.889Z,100.00
2018-10-17T06:46:23.024Z,100.00
2018-10-17T06:48:51.560Z,100.00
2018-10-17T06:51:19.772Z,100.00
2018-10-17T06:53:47.961Z,100.00
2018-10-17T06:56:16.064Z,100.00
2018-10-17T06:58:44.335Z,100.00
2018-10-17T07:01:12.614Z,100.00
2018-10-17T07:03:40.766Z,100.00
2018-10-17T07:06:09.050Z,100.00
2018-10-17T07:08:37.359Z,100.00
2018-10-17T07:11:05.829Z,100.00
2018-10-17T07:13:33.985Z,100.00
2018-10-17T07:16:02.254Z,100.00
2018-10-17T07:18:30.565Z,100.00
2018-10-17T07:20:58.760Z,100.00
2018-10-17T07:23:26.929Z,100.00
2018-10-17T07:25:55.112Z,100.00
2018-10-17T07:28:23.333Z,100.00
2018-10-17T07:30:51.870Z,100.00
2018-10-17T07:33:20.055Z,100.00
2018-10-17T07:35:48.673Z,100.00
2018-10-17T07:38:16.786Z,100.00
2018-10-17T07:40:44.963Z,100.00
2018-10-17T07:43:13.201Z,100.00
2018-10-17T07:45:41.431Z,100.00
2018-10-17T07:48:09.619Z,100.00
2018-10-17T07:50:37.713Z,100.00
2018-10-17T07:53:05.898Z,100.00
2018-10-17T07:55:34.145Z,100.00
2018-10-17T07:58:02.321Z,100.00
2018-10-17T08:00:30.660Z,100.00
2018-10-17T08:02:58.693Z,100.00
2018-10-17T08:05:26.860Z,100.00
2018-10-17T08:07:55.032Z,100.00
2018-10-17T08:10:23.200Z,100.00
2018-10-17T08:12:51.385Z,100.00
2018-10-17T08:15:19.552Z,100.00
2018-10-17T08:17:48.436Z,100.00
2018-10-17T08:20:16.599Z,100.00
2018-10-17T08:22:44.768Z,100.00
2018-10-17T08:25:13.140Z,100.00
2018-10-17T08:27:42.078Z,100.00
2018-10-17T08:30:11.005Z,100.00
2018-10-17T08:32:39.702Z,100.00
2018-10-17T08:35:08.273Z,100.00
2018-10-17T08:37:37.377Z,100.00
2018-10-17T08:40:06.034Z,100.00
2018-10-17T08:42:34.225Z,100.00
2018-10-17T08:45:02.468Z,100.00
2018-10-17T08:47:30.938Z,100.00
2018-10-17T08:49:59.224Z,100.00
2018-10-17T08:52:27.401Z,100.00
2018-10-17T08:54:55.565Z,100.00
2018-10-17T08:57:23.745Z,100.00
2018-10-17T08:59:51.928Z,100.00
2018-10-17T09:02:20.189Z,100.00
2018-10-17T09:04:48.791Z,100.00
2018-10-17T09:07:17.049Z,100.00
2018-10-17T09:09:45.246Z,100.00
2018-10-17T09:12:13.517Z,100.00
2018-10-17T09:14:41.673Z,100.00
2018-10-17T09:17:09.949Z,100.00
2018-10-17T09:19:38.694Z,100.00
2018-10-17T09:22:07.341Z,100.00
2018-10-17T09:24:35.321Z,100.00
2018-10-17T09:27:03.592Z,100.00
2018-10-17T09:29:32.309Z,100.00
2018-10-17T09:32:00.534Z,100.00
2018-10-17T09:34:28.830Z,100.00
2018-10-17T09:36:57.002Z,100.00
2018-10-17T09:39:25.249Z,100.00
2018-10-17T09:41:53.479Z,100.00
2018-10-17T09:44:21.719Z,100.00
2018-10-17T09:46:49.894Z,100.00
2018-10-17T09:49:18.161Z,100.00
2018-10-17T09:51:46.351Z,100.00
2018-10-17T09:54:14.635Z,100.00
2018-10-17T09:56:42.793Z,100.00
2018-10-17T09:59:10.973Z,100.00
2018-10-17T10:01:44.601Z,100.00
2018-10-17T10:04:12.855Z,100.00
2018-10-17T10:06:41.230Z,100.00
2018-10-17T10:11:37.411Z,92.98
2018-10-17T10:14:05.776Z,79.57
2018-10-17T10:16:34.223Z,67.20
2018-10-17T10:19:02.443Z,55.06
2018-10-17T10:21:30.849Z,47.15
2018-10-17T10:23:59.546Z,45.17
2018-10-17T10:26:27.726Z,44.60
2018-10-17T10:28:55.904Z,40.80
2018-10-17T10:31:24.470Z,39.85
2018-10-17T10:33:52.960Z,39.08
2018-10-17T10:36:21.402Z,37.41
2018-10-17T10:38:49.978Z,37.32
2018-10-17T10:41:18.214Z,34.81
2018-10-17T10:43:46.478Z,36.39
2018-10-17T10:46:14.769Z,33.25
2018-10-17T10:48:42.945Z,32.36
2018-10-17T10:51:11.266Z,33.11
2018-10-17T10:53:39.406Z,32.01
2018-10-17T10:56:07.638Z,30.25
2018-10-17T10:58:35.891Z,30.30
2018-10-17T11:01:04.028Z,29.60
2018-10-17T11:03:32.316Z,29.05
2018-10-17T11:06:00.484Z,29.89
2018-10-17T11:08:28.755Z,27.25
2018-10-17T11:10:57.131Z,28.59
2018-10-17T11:13:25.386Z,27.51
2018-10-17T11:15:53.684Z,26.14
2018-10-17T11:18:21.936Z,26.35
2018-10-17T11:20:50.215Z,26.71
2018-10-17T11:23:18.495Z,26.73
2018-10-17T11:25:46.662Z,25.96
2018-10-17T11:28:14.874Z,25.61
2018-10-17T11:30:43.150Z,25.19
2018-10-17T11:33:11.432Z,25.41
2018-10-17T11:35:39.509Z,24.88
2018-10-17T11:38:07.759Z,23.81
2018-10-17T11:40:36.093Z,24.60
2018-10-17T11:43:04.317Z,23.59
2018-10-17T11:45:32.598Z,23.73
2018-10-17T11:48:00.784Z,23.35
2018-10-17T11:50:29.086Z,21.66
2018-10-17T11:52:57.382Z,21.37
2018-10-17T11:55:25.526Z,21.86
2018-10-17T11:57:53.757Z,21.54
2018-10-17T12:00:22.037Z,21.41
2018-10-17T12:02:50.222Z,22.69
2018-10-17T12:05:18.685Z,21.76
2018-10-17T12:07:47.177Z,20.07
2018-10-17T12:10:15.378Z,20.28
2018-10-17T12:12:43.571Z,19.66
2018-10-17T12:15:15.132Z,19.77
2018-10-17T12:17:43.465Z,19.59
2018-10-17T12:20:13.931Z,19.83
2018-10-17T12:22:42.938Z,19.74
2018-10-17T12:25:11.900Z,19.81
2018-10-17T12:27:40.216Z,20.23
2018-10-17T12:30:10.924Z,19.48
2018-10-17T12:32:39.684Z,18.29
2018-10-17T12:35:08.004Z,18.32
2018-10-17T12:37:36.994Z,20.42
2018-10-17T12:40:06.270Z,19.56
2018-10-17T12:42:34.422Z,18.71
2018-10-17T12:45:02.758Z,20.52
2018-10-17T12:47:30.921Z,20.95
2018-10-17T12:49:59.185Z,19.48
2018-10-17T12:52:27.442Z,18.60
2018-10-17T12:54:55.641Z,18.81
2018-10-17T12:57:24.446Z,18.85
2018-10-17T12:59:52.624Z,18.70
2018-10-17T13:02:20.852Z,18.94
2018-10-17T13:04:49.033Z,17.10
2018-10-17T13:07:17.339Z,17.78
2018-10-17T13:09:45.543Z,17.29
2018-10-17T13:12:14.027Z,17.38
2018-10-17T13:14:42.256Z,18.42
2018-10-17T13:17:10.548Z,18.13
2018-10-17T13:19:38.647Z,17.88
2018-10-17T13:22:07.309Z,18.27
2018-10-17T13:24:35.534Z,17.89
2018-10-17T13:27:03.716Z,19.58
2018-10-17T13:29:31.894Z,19.79
2018-10-17T13:32:00.130Z,18.23
2018-10-17T13:34:28.303Z,17.59
2018-10-17T13:36:56.551Z,18.08
2018-10-17T13:39:24.706Z,18.18
2018-10-17T13:41:52.907Z,18.48
2018-10-17T13:44:21.118Z,18.50
2018-10-17T13:46:49.582Z,18.32
2018-10-17T13:49:17.977Z,18.19
2018-10-17T13:51:46.102Z,18.91
2018-10-17T13:54:14.329Z,19.86
2018-10-17T13:56:42.509Z,19.76
2018-10-17T13:59:10.779Z,19.66
2018-10-17T14:01:38.937Z,19.38
2018-10-17T14:04:07.135Z,19.11
2018-10-17T14:06:35.388Z,19.62
2018-10-17T14:09:03.927Z,20.00
2018-10-17T14:11:32.224Z,20.18
2018-10-17T14:14:00.539Z,20.84
2018-10-17T14:16:28.790Z,22.70
2018-10-17T14:18:57.064Z,24.12
2018-10-17T14:21:25.242Z,24.47
2018-10-17T14:23:53.468Z,23.47
2018-10-17T14:26:21.653Z,22.80
2018-10-17T14:28:49.830Z,21.85
2018-10-17T14:31:18.452Z,21.28
2018-10-17T14:33:46.738Z,22.25
2018-10-17T14:36:14.980Z,22.91
2018-10-17T14:38:43.214Z,24.53
2018-10-17T14:41:11.454Z,27.21
2018-10-17T14:43:39.719Z,29.98
2018-10-17T14:46:07.958Z,32.95
2018-10-17T14:48:36.189Z,34.76
2018-10-17T14:51:04.435Z,34.84
2018-10-17T14:53:32.762Z,36.09
2018-10-17T14:56:01.047Z,38.06
2018-10-17T14:58:29.215Z,39.12
2018-10-17T15:00:57.402Z,39.49
2018-10-17T15:03:25.643Z,40.51
2018-10-17T15:05:53.845Z,41.80
2018-10-17T15:08:22.095Z,43.47
2018-10-17T15:10:51.318Z,45.31
2018-10-17T15:13:19.197Z,44.28
2018-10-17T15:15:47.489Z,45.14
2018-10-17T15:18:16.418Z,44.72
2018-10-17T15:20:44.781Z,45.04
2018-10-17T15:23:13.448Z,46.42
2018-10-17T15:25:41.645Z,48.51
2018-10-17T15:28:09.883Z,50.71
2018-10-17T15:30:38.148Z,53.77
2018-10-17T15:33:06.386Z,57.29
2018-10-17T15:35:34.676Z,61.40
2018-10-17T15:38:02.946Z,65.75
2018-10-17T15:40:31.112Z,71.51
2018-10-17T15:42:59.703Z,77.37
2018-10-17T15:45:27.821Z,80.19
2018-10-17T15:47:56.147Z,84.42
2018-10-17T15:50:24.406Z,84.96
2018-10-17T15:52:52.641Z,86.06
2018-10-17T15:55:20.878Z,92.09
2018-10-17T15:57:49.074Z,96.68
2018-10-17T16:00:17.314Z,98.77
2018-10-17T16:02:45.609Z,100.00
2018-10-17T16:05:13.804Z,100.00
2018-10-17T16:07:42.522Z,100.00
2018-10-17T16:10:10.694Z,100.00
2018-10-17T16:12:39.398Z,100.00
2018-10-17T16:15:08.680Z,100.00
2018-10-17T16:17:37.830Z,100.00
2018-10-17T16:20:08.112Z,100.00
2018-10-17T16:22:36.291Z,100.00
2018-10-17T16:25:05.586Z,100.00
2018-10-17T16:27:33.788Z,100.00
2018-10-17T16:30:02.134Z,100.00
2018-10-17T16:32:30.340Z,100.00
2018-10-17T16:34:58.546Z,100.00
2018-10-17T16:37:26.841Z,100.00
2018-10-17T16:39:55.026Z,100.00
2018-10-17T16:42:23.286Z,100.00
2018-10-17T16:44:52.103Z,100.00
2018-10-17T16:47:20.549Z,100.00
2018-10-17T16:49:49.007Z,100.00
2018-10-17T16:52:17.017Z,100.00
2018-10-17T16:54:45.225Z,100.00
2018-10-17T16:57:13.860Z,100.00
2018-10-17T16:59:41.995Z,100.00
2018-10-17T17:02:10.189Z,100.00
2018-10-17T17:04:38.475Z,100.00
2018-10-17T17:07:06.664Z,100.00
2018-10-17T17:09:39.616Z,100.00
2018-10-17T17:12:07.854Z,100.00
2018-10-17T17:14:36.021Z,100.00
2018-10-17T17:17:04.198Z,100.00
2018-10-17T17:19:32.421Z,100.00
2018-10-17T17:22:00.697Z,100.00
2018-10-17T17:24:28.998Z,100.00
2018-10-17T17:26:57.285Z,100.00
2018-10-17T17:29:25.430Z,100.00
2018-10-17T17:31:53.629Z,100.00
2018-10-17T17:34:21.874Z,100.00
2018-10-17T17:36:50.078Z,100.00
2018-10-17T17:39:18.325Z,100.00
2018-10-17T17:41:46.501Z,100.00
2018-10-17T17:44:14.684Z,100.00
2018-10-17T17:46:43.102Z,100.00
2018-10-17T17:49:11.279Z,100.00
2018-10-17T17:51:39.459Z,100.00
2018-10-17T17:54:07.739Z,100.00
2018-10-17T17:56:35.988Z,100.00
2018-10-17T17:59:04.244Z,100.00
2018-10-17T18:01:32.465Z,100.00
2018-10-17T18:04:00.695Z,100.00
2018-10-17T18:06:28.877Z,100.00
2018-10-17T18:08:57.062Z,100.00
2018-10-17T18:11:25.964Z,100.00
2018-10-17T18:13:55.684Z,100.00
2018-10-17T18:16:23.921Z,100.00
2018-10-17T18:18:52.158Z,100.00
2018-10-17T18:21:21.551Z,100.00
2018-10-17T18:23:50.075Z,100.00
2018-10-17T18:26:18.245Z,100.00
2018-10-17T18:28:46.437Z,100.00
2018-10-17T18:31:14.658Z,100.00
2018-10-17T18:33:42.947Z,100.00
2018-10-17T18:36:11.116Z,100.00
2018-10-17T18:38:39.340Z,100.00
2018-10-17T18:41:07.567Z,100.00
2018-10-17T18:43:35.749Z,100.00
2018-10-17T18:46:03.954Z,100.00
2018-10-17T18:48:32.137Z,100.00
2018-10-17T18:51:00.403Z,100.00
2018-10-17T18:53:28.631Z,100.00
2018-10-17T18:55:56.827Z,100.00
2018-10-17T18:58:24.989Z,100.00
2018-10-17T19:00:53.303Z,100.00
2018-10-17T19:03:21.751Z,100.00
2018-10-17T19:05:49.942Z,100.00
2018-10-17T19:08:18.193Z,100.00
2018-10-17T19:10:46.392Z,100.00
2018-10-17T19:13:14.611Z,100.00
2018-10-17T19:15:43.352Z,100.00
2018-10-17T19:18:11.612Z,100.00
2018-10-17T19:20:39.790Z,100.00
2018-10-17T19:23:15.036Z,100.00
2018-10-17T19:25:43.308Z,100.00
2018-10-17T19:28:11.510Z,100.00
2018-10-17T19:30:39.710Z,100.00
2018-10-17T19:33:08.094Z,100.00
2018-10-17T19:35:36.353Z,100.00
2018-10-17T19:38:05.731Z,100.00
2018-10-17T19:40:34.009Z,100.00
2018-10-17T19:43:02.394Z,100.00
2018-10-17T19:45:30.593Z,100.00
2018-10-17T19:47:58.838Z,100.00
2018-10-17T19:50:27.009Z,100.00
2018-10-17T19:52:55.289Z,100.00
2018-10-17T19:55:23.486Z,100.00
2018-10-17T19:57:51.730Z,100.00
2018-10-17T20:00:19.933Z,100.00
2018-10-17T20:02:48.133Z,100.00
2018-10-17T20:05:17.188Z,100.00
2018-10-17T20:07:46.066Z,100.00
2018-10-17T20:10:14.191Z,100.00
2018-10-17T20:12:42.360Z,100.00
2018-10-17T20:15:10.556Z,100.00
2018-10-17T20:17:39.862Z,100.00
2018-10-17T20:20:08.078Z,100.00
2018-10-17T20:22:36.278Z,100.00
2018-10-17T20:25:04.853Z,100.00
2018-10-17T20:27:33.078Z,100.00
2018-10-17T20:30:01.274Z,100.00
2018-10-17T20:32:29.451Z,100.00
2018-10-17T20:34:57.659Z,100.00
2018-10-17T20:37:25.849Z,100.00
2018-10-17T20:39:54.045Z,100.00
2018-10-17T20:42:22.345Z,100.00
2018-10-17T20:44:50.530Z,100.00
2018-10-17T20:47:18.795Z,100.00
2018-10-17T20:49:47.377Z,100.00
2018-10-17T20:52:15.600Z,100.00
2018-10-17T20:54:43.833Z,100.00
2018-10-17T20:57:12.127Z,100.00
2018-10-17T20:59:40.316Z,100.00
2018-10-17T21:02:08.547Z,100.00
2018-10-17T21:04:36.875Z,100.00
2018-10-17T21:07:05.205Z,100.00
2018-10-17T21:09:33.543Z,100.00
2018-10-17T21:12:01.833Z,100.00
2018-10-17T21:14:30.027Z,100.00
2018-10-17T21:16:59.620Z,100.00
2018-10-17T21:19:28.530Z,100.00
2018-10-17T21:21:57.114Z,100.00
2018-10-17T21:24:25.349Z,100.00
2018-10-17T21:26:53.771Z,100.00
2018-10-17T21:29:21.960Z,100.00
2018-10-17T21:31:50.165Z,100.00
2018-10-17T21:34:18.596Z,100.00
2018-10-17T21:36:46.864Z,100.00
2018-10-17T21:39:15.051Z,100.00
2018-10-17T21:41:43.256Z,100.00
2018-10-17T21:44:11.882Z,100.00
2018-10-17T21:46:40.423Z,100.00
2018-10-17T21:49:09.514Z,100.00
2018-10-17T21:51:37.913Z,100.00
2018-10-17T21:54:06.427Z,100.00
2018-10-17T21:56:34.745Z,100.00
2018-10-17T21:59:03.145Z,100.00
2018-10-17T22:01:31.401Z,100.00
2018-10-17T22:03:59.645Z,100.00
2018-10-17T22:06:27.895Z,100.00
2018-10-17T22:08:56.097Z,100.00
2018-10-17T22:11:24.281Z,100.00
2018-10-17T22:13:52.476Z,100.00
2018-10-17T22:16:20.672Z,100.00
2018-10-17T22:18:48.920Z,100.00
2018-10-17T22:21:17.070Z,100.00
2018-10-17T22:23:45.256Z,100.00
2018-10-17T22:26:13.586Z,100.00
2018-10-17T22:28:41.689Z,100.00
2018-10-17T22:31:10.125Z,100.00
2018-10-17T22:33:38.289Z,100.00
2018-10-17T22:36:06.556Z,100.00
2018-10-17T22:38:34.716Z,100.00
2018-10-17T22:41:02.943Z,100.00
2018-10-17T22:43:31.132Z,100.00
2018-10-17T22:45:59.404Z,100.00
2018-10-17T22:48:27.670Z,100.00
2018-10-17T22:50:55.968Z,100.00
2018-10-17T22:53:24.200Z,100.00
2018-10-17T22:55:52.403Z,100.00
2018-10-17T22:58:20.697Z,100.00
2018-10-17T23:00:49.330Z,100.00
2018-10-17T23:03:17.802Z,100.00
2018-10-17T23:05:46.019Z,100.00
2018-10-17T23:08:14.266Z,100.00
2018-10-17T23:10:42.389Z,100.00
2018-10-17T23:13:10.577Z,100.00
2018-10-17T23:15:38.769Z,100.00
2018-10-17T23:18:06.973Z,100.00
2018-10-17T23:20:35.241Z,100.00
2018-10-17T23:23:03.568Z,100.00
2018-10-17T23:25:31.821Z,100.00
2018-10-17T23:28:00.053Z,100.00
2018-10-17T23:30:28.265Z,100.00
2018-10-17T23:32:56.424Z,100.00
2018-10-17T23:35:24.709Z,100.00
2018-10-17T23:37:53.090Z,100.00
2018-10-17T23:40:21.272Z,100.00
2018-10-17T23:42:49.684Z,100.00
2018-10-17T23:45:17.850Z,100.00
2018-10-17T23:47:46.095Z,100.00
2018-10-17T23:50:14.383Z,100.00
2018-10-17T23:52:42.674Z,100.00
2018-10-17T23:55:10.840Z,100.00
2018-10-17T23:57:39.174Z,100.00
